Terminal Aerodrome Forecast
Issued by NWS

Home | Current Version | Previous Version | Text Only | Print | Product List | Glossary Off
Versions: 1 2 3 4 5 6 7 8 9 10 11 12 13 14 15 16 17 18 19 20

000
FTUS41 KCLE 140500
TAFFDY
TAF
KFDY 140520Z 1406/1506 20014G22KT P6SM OVC080 WS017/21045KT
     FM141000 20018G28KT 6SM -SHRA BKN035 OVC060 WS017/21045KT
      TEMPO 1410/1414 4SM -SHRA BR OVC035
     FM141400 21024G34KT 6SM -SHRA VCTS SCT020CB OVC035
      TEMPO 1414/1418 4SM SHRA BR BKN020
     FM141800 25020G30KT 5SM -SHRA BR VCTS OVC020CB
     FM142100 30015G25KT 6SM -RA BR OVC012
     FM150200 33011KT 5SM -DZ BR OVC006=

USA.gov is the U.S. government's official web portal to all federal, state and local government web resources and services.